createdAt,value
2023-02-21T00:01:13.582Z,8.80
2023-02-21T00:03:59.285Z,8.80
2023-02-21T00:06:46.372Z,8.80
2023-02-21T00:09:32.257Z,8.80
2023-02-21T00:12:20.918Z,8.70
2023-02-21T00:15:06.567Z,8.70
2023-02-21T00:17:52.182Z,8.70
2023-02-21T00:20:38.172Z,8.70
2023-02-21T00:23:25.552Z,8.60
2023-02-21T00:26:11.225Z,8.70
2023-02-21T00:28:56.903Z,8.70
2023-02-21T00:31:42.540Z,8.70
2023-02-21T00:34:30.483Z,8.60
2023-02-21T00:37:16.681Z,8.70
2023-02-21T00:40:04.289Z,8.60
2023-02-21T00:42:50.389Z,8.70
2023-02-21T00:45:35.949Z,8.70
2023-02-21T00:48:22.079Z,8.60
2023-02-21T00:51:07.684Z,8.70
2023-02-21T00:53:53.386Z,8.70
2023-02-21T00:56:40.576Z,8.60
2023-02-21T00:59:26.142Z,8.60
2023-02-21T01:02:12.337Z,8.60
2023-02-21T01:04:57.918Z,8.70
2023-02-21T01:07:43.458Z,8.60
2023-02-21T01:10:29.306Z,8.60
2023-02-21T01:13:17.040Z,8.60
2023-02-21T01:16:03.491Z,8.50
2023-02-21T01:18:49.836Z,8.50
2023-02-21T01:21:37.264Z,8.50
2023-02-21T01:24:24.433Z,8.50
2023-02-21T01:27:10.721Z,8.50
2023-02-21T01:29:57.695Z,8.50
2023-02-21T01:32:44.028Z,8.50
2023-02-21T01:35:29.885Z,8.50
2023-02-21T01:38:16.396Z,8.50
2023-02-21T01:41:02.529Z,8.50
2023-02-21T01:43:48.909Z,8.50
2023-02-21T01:46:37.536Z,8.60
2023-02-21T01:49:26.011Z,8.50
2023-02-21T01:52:12.708Z,8.60
2023-02-21T01:55:04.483Z,8.50
2023-02-21T01:57:51.335Z,8.50
2023-02-21T02:00:37.847Z,8.50
2023-02-21T02:03:28.016Z,8.50
2023-02-21T02:06:19.356Z,8.50
2023-02-21T02:09:05.330Z,8.50
2023-02-21T02:12:18.881Z,8.50
2023-02-21T02:15:11.361Z,8.50
2023-02-21T02:17:52.507Z,8.50
2023-02-21T02:20:49.039Z,8.50
2023-02-21T02:23:43.956Z,8.50
2023-02-21T02:26:53.906Z,8.50
2023-02-21T02:29:49.618Z,8.50
2023-02-21T02:32:44.495Z,8.50
2023-02-21T02:35:23.751Z,8.40
2023-02-21T02:37:58.589Z,8.50
2023-02-21T02:40:34.029Z,8.40
2023-02-21T02:43:11.559Z,8.40
2023-02-21T02:45:44.918Z,8.30
2023-02-21T02:48:21.377Z,8.30
2023-02-21T02:50:53.434Z,8.30
2023-02-21T02:53:27.687Z,8.30
2023-02-21T02:55:59.319Z,8.30
2023-02-21T02:58:32.385Z,8.30
2023-02-21T03:01:16.939Z,8.30
2023-02-21T03:04:11.410Z,8.30
2023-02-21T03:06:52.542Z,8.30
2023-02-21T03:09:28.562Z,8.20
2023-02-21T03:12:04.881Z,8.20
2023-02-21T03:14:40.586Z,8.10
2023-02-21T03:17:14.125Z,8.10
2023-02-21T03:19:45.569Z,8.10
2023-02-21T03:22:19.972Z,8.20
2023-02-21T03:24:52.281Z,8.10
2023-02-21T03:27:22.553Z,8.20
2023-02-21T03:30:10.139Z,8.20
2023-02-21T03:32:41.476Z,8.20
2023-02-21T03:35:10.238Z,8.20
2023-02-21T03:37:44.202Z,8.20
2023-02-21T03:40:16.030Z,8.20
2023-02-21T03:42:48.843Z,8.10
2023-02-21T03:45:20.570Z,8.10
2023-02-21T03:48:09.411Z,8.10
2023-02-21T03:50:39.809Z,8.10
2023-02-21T03:53:10.583Z,8.10
2023-02-21T03:55:40.689Z,8.10
2023-02-21T03:58:15.266Z,8.10
2023-02-21T04:00:44.645Z,8.20
2023-02-21T04:03:13.563Z,8.20
2023-02-21T04:06:04.216Z,8.20
2023-02-21T04:08:35.082Z,8.10
2023-02-21T04:11:03.919Z,8.10
2023-02-21T04:13:35.038Z,8.10
2023-02-21T04:16:04.603Z,8.10
2023-02-21T04:18:37.688Z,8.10
2023-02-21T04:21:07.997Z,8.10
2023-02-21T04:23:38.030Z,8.10
2023-02-21T04:26:07.651Z,8.10
2023-02-21T04:28:49.003Z,8.20
2023-02-21T04:31:18.297Z,8.20
2023-02-21T04:33:47.380Z,8.20
2023-02-21T04:36:22.919Z,8.20
2023-02-21T04:38:54.003Z,8.20
2023-02-21T04:41:22.780Z,8.20
2023-02-21T04:43:53.059Z,8.20
2023-02-21T04:46:21.553Z,8.20
2023-02-21T04:48:52.039Z,8.20
2023-02-21T04:51:23.979Z,8.20
2023-02-21T04:53:55.564Z,8.10
2023-02-21T04:56:26.105Z,8.10
2023-02-21T04:58:54.888Z,8.10
2023-02-21T05:01:24.102Z,8.20
2023-02-21T05:03:52.628Z,8.10
2023-02-21T05:06:22.208Z,8.20
2023-02-21T05:08:50.672Z,8.20
2023-02-21T05:11:22.245Z,8.10
2023-02-21T05:13:51.173Z,8.10
2023-02-21T05:16:21.455Z,8.10
2023-02-21T05:18:50.533Z,8.10
2023-02-21T05:21:21.319Z,8.20
2023-02-21T05:23:56.969Z,8.10
2023-02-21T05:26:31.126Z,8.10
2023-02-21T05:29:00.055Z,8.20
2023-02-21T05:31:29.064Z,8.10
2023-02-21T05:33:57.619Z,8.10
2023-02-21T05:36:26.486Z,8.10
2023-02-21T05:38:57.077Z,8.20
2023-02-21T05:41:27.045Z,8.20
2023-02-21T05:43:55.856Z,8.20
2023-02-21T05:46:27.029Z,8.20
2023-02-21T05:48:56.506Z,8.20
2023-02-21T05:51:25.661Z,8.10
2023-02-21T05:53:54.891Z,8.10
2023-02-21T05:56:23.874Z,8.10
2023-02-21T05:58:53.890Z,8.10
2023-02-21T06:01:22.481Z,8.10
2023-02-21T06:03:51.007Z,8.00
2023-02-21T06:06:19.835Z,8.00
2023-02-21T06:08:49.824Z,7.90
2023-02-21T06:11:24.723Z,7.90
2023-02-21T06:13:55.298Z,8.00
2023-02-21T06:16:24.969Z,8.00
2023-02-21T06:18:54.293Z,8.00
2023-02-21T06:21:22.848Z,8.00
2023-02-21T06:23:51.405Z,8.00
2023-02-21T06:26:21.252Z,8.00
2023-02-21T06:28:49.992Z,8.00
2023-02-21T06:31:21.602Z,8.00
2023-02-21T06:33:51.469Z,7.90
2023-02-21T06:36:22.715Z,7.90
2023-02-21T06:38:53.396Z,7.90
2023-02-21T06:41:24.822Z,7.90
2023-02-21T06:43:53.700Z,7.80
2023-02-21T06:46:25.444Z,7.80
2023-02-21T06:48:54.375Z,7.80
2023-02-21T06:51:29.529Z,7.80
2023-02-21T06:54:00.410Z,7.80
2023-02-21T06:56:32.056Z,7.90
2023-02-21T06:59:00.682Z,7.80
2023-02-21T07:01:32.196Z,7.80
2023-02-21T07:04:01.801Z,7.80
2023-02-21T07:06:33.639Z,7.70
2023-02-21T07:09:02.329Z,7.60
2023-02-21T07:11:33.477Z,7.60
2023-02-21T07:14:02.275Z,7.60
2023-02-21T07:16:32.403Z,7.60
2023-02-21T07:19:00.918Z,7.60
2023-02-21T07:21:29.572Z,7.60
2023-02-21T07:23:58.321Z,7.60
2023-02-21T07:26:26.754Z,7.60
2023-02-21T07:28:55.385Z,7.60
2023-02-21T07:31:24.175Z,7.50
2023-02-21T07:33:54.416Z,7.50
2023-02-21T07:36:23.615Z,7.50
2023-02-21T07:38:52.224Z,7.60
2023-02-21T07:41:20.746Z,7.60
2023-02-21T07:43:49.401Z,7.60
2023-02-21T07:46:22.256Z,7.60
2023-02-21T07:48:51.016Z,7.50
2023-02-21T07:51:21.085Z,7.50
2023-02-21T07:53:52.416Z,7.50
2023-02-21T07:56:21.078Z,7.50
2023-02-21T07:58:50.150Z,7.50
2023-02-21T08:01:18.792Z,7.60
2023-02-21T08:03:47.321Z,7.60
2023-02-21T08:06:15.924Z,7.60
2023-02-21T08:08:45.906Z,7.60
2023-02-21T08:11:14.869Z,7.60
2023-02-21T08:13:43.527Z,7.60
2023-02-21T08:16:12.075Z,7.60
2023-02-21T08:18:40.486Z,7.60
2023-02-21T08:21:11.044Z,7.60
2023-02-21T08:23:39.519Z,7.60
2023-02-21T08:26:09.532Z,7.60
2023-02-21T08:28:38.238Z,7.60
2023-02-21T08:31:08.109Z,7.60
2023-02-21T08:33:36.872Z,7.60
2023-02-21T08:36:05.932Z,7.60
2023-02-21T08:38:34.333Z,7.60
2023-02-21T08:41:03.106Z,7.70
2023-02-21T08:43:33.168Z,7.70
2023-02-21T08:46:02.865Z,7.70
2023-02-21T08:48:31.404Z,7.70
2023-02-21T08:50:59.864Z,7.80
2023-02-21T08:53:28.273Z,7.80
2023-02-21T08:55:56.759Z,7.70
2023-02-21T08:58:25.396Z,7.70
2023-02-21T09:00:55.553Z,7.80
2023-02-21T09:03:24.245Z,7.90
2023-02-21T09:05:52.996Z,7.90
2023-02-21T09:08:22.718Z,8.00
2023-02-21T09:10:55.855Z,8.00
2023-02-21T09:13:24.368Z,8.00
2023-02-21T09:15:54.481Z,8.00
2023-02-21T09:18:23.009Z,8.00
2023-02-21T09:20:52.336Z,8.10
2023-02-21T09:23:21.598Z,8.10
2023-02-21T09:25:50.739Z,8.20
2023-02-21T09:28:20.326Z,8.30
2023-02-21T09:30:48.815Z,8.40
2023-02-21T09:33:19.467Z,8.50
2023-02-21T09:35:48.191Z,8.50
2023-02-21T09:38:16.719Z,8.50
2023-02-21T09:40:49.896Z,8.50
2023-02-21T09:43:26.085Z,8.50
2023-02-21T09:45:58.521Z,8.50
2023-02-21T09:48:39.821Z,8.50
2023-02-21T09:51:12.515Z,8.60
2023-02-21T09:53:44.867Z,8.60
2023-02-21T09:56:16.533Z,8.60
2023-02-21T09:58:46.338Z,8.50
2023-02-21T10:01:27.005Z,8.50
2023-02-21T10:04:09.135Z,8.50
2023-02-21T10:06:46.011Z,8.40
2023-02-21T10:09:25.090Z,8.40
2023-02-21T10:12:06.111Z,8.40
2023-02-21T10:14:44.728Z,8.50
2023-02-21T10:17:20.594Z,8.60
2023-02-21T10:19:55.463Z,8.70
2023-02-21T10:22:29.737Z,8.70
2023-02-21T10:24:58.530Z,8.70
2023-02-21T10:27:31.806Z,8.70
2023-02-21T10:30:07.244Z,8.70
2023-02-21T10:32:35.852Z,8.70
2023-02-21T10:35:06.849Z,8.60
2023-02-21T10:37:41.483Z,8.80
2023-02-21T10:40:32.077Z,8.90
2023-02-21T10:43:06.053Z,8.90
2023-02-21T10:45:39.254Z,8.90
2023-02-21T10:48:10.691Z,8.80
2023-02-21T10:50:52.875Z,8.80
2023-02-21T10:53:29.144Z,8.90
2023-02-21T10:56:27.687Z,9.00
2023-02-21T10:59:01.213Z,9.10
2023-02-21T11:01:37.721Z,9.00
2023-02-21T11:04:08.321Z,9.00
2023-02-21T11:06:40.699Z,9.10
2023-02-21T11:09:41.809Z,9.20
2023-02-21T11:12:25.627Z,9.20
2023-02-21T11:15:25.131Z,9.40
2023-02-21T11:18:07.771Z,9.50
2023-02-21T11:20:42.898Z,9.60
2023-02-21T11:23:25.972Z,9.70
2023-02-21T11:26:01.506Z,9.90
2023-02-21T11:28:30.188Z,10.00
2023-02-21T11:31:18.663Z,10.10
2023-02-21T11:33:53.444Z,10.20
2023-02-21T11:36:37.451Z,10.10
2023-02-21T11:39:19.868Z,10.10
2023-02-21T11:41:50.157Z,10.20
2023-02-21T11:44:31.538Z,10.20
2023-02-21T11:47:14.211Z,10.10
2023-02-21T11:49:52.708Z,10.20
2023-02-21T11:52:25.846Z,10.10
2023-02-21T11:54:56.136Z,10.20
2023-02-21T11:57:30.843Z,10.10
2023-02-21T12:00:09.196Z,10.10
2023-02-21T12:03:30.888Z,10.10
2023-02-21T12:06:04.541Z,10.20
2023-02-21T12:08:47.049Z,10.20
2023-02-21T12:11:39.837Z,10.30
2023-02-21T12:14:23.294Z,10.20
2023-02-21T12:17:02.603Z,10.20
2023-02-21T12:20:07.194Z,10.20
2023-02-21T12:22:56.381Z,10.30
2023-02-21T12:25:32.841Z,10.30
2023-02-21T12:28:17.475Z,10.30
2023-02-21T13:05:19.421Z,9.80
2023-02-21T13:07:54.012Z,9.90
2023-02-21T13:10:26.776Z,10.00
2023-02-21T13:13:00.461Z,10.10
2023-02-21T13:15:30.990Z,10.20
2023-02-21T13:18:04.190Z,10.20
2023-02-21T13:20:37.993Z,10.30
2023-02-21T13:24:02.031Z,10.30
2023-02-21T13:26:48.110Z,10.30
2023-02-21T13:29:21.797Z,10.20
2023-02-21T13:31:58.454Z,10.20
2023-02-21T13:34:30.839Z,10.20
2023-02-21T13:37:07.815Z,10.30
2023-02-21T13:39:38.623Z,10.30
2023-02-21T13:42:10.662Z,10.30
2023-02-21T13:44:42.911Z,10.20
2023-02-21T13:47:16.231Z,10.20
2023-02-21T13:49:50.988Z,10.10
2023-02-21T13:52:51.762Z,10.10
2023-02-21T13:55:31.731Z,10.20
2023-02-21T13:58:40.207Z,10.10
2023-02-21T14:01:43.359Z,10.20
2023-02-21T14:05:01.685Z,10.10
2023-02-21T14:07:58.432Z,10.20
2023-02-21T14:10:47.468Z,10.30
2023-02-21T14:13:28.712Z,10.30
2023-02-21T14:16:10.213Z,10.20
2023-02-21T14:18:46.170Z,10.10
2023-02-21T14:21:18.614Z,10.00
2023-02-21T14:23:52.405Z,10.00
2023-02-21T14:26:45.309Z,10.10
2023-02-21T14:29:36.135Z,10.00
2023-02-21T14:32:34.948Z,10.00
2023-02-21T14:35:24.032Z,10.10
2023-02-21T14:38:01.558Z,10.10
2023-02-21T14:40:42.408Z,10.10
2023-02-21T14:43:24.238Z,10.10
2023-02-21T14:46:09.006Z,10.10
2023-02-21T14:48:56.903Z,9.90
2023-02-21T14:52:01.498Z,9.90
2023-02-21T14:54:53.942Z,9.70
2023-02-21T14:57:53.275Z,9.60
2023-02-21T15:00:31.522Z,9.70
2023-02-21T15:03:14.182Z,9.60
2023-02-21T15:05:54.681Z,9.60
2023-02-21T15:08:26.091Z,9.60
2023-02-21T15:10:58.769Z,9.70
2023-02-21T15:13:32.152Z,9.70
2023-02-21T15:16:04.440Z,9.60
2023-02-21T15:18:34.974Z,9.60
2023-02-21T15:21:07.249Z,9.60
2023-02-21T15:23:36.450Z,9.50
2023-02-21T15:26:19.841Z,9.60
2023-02-21T15:29:07.108Z,9.60
2023-02-21T15:31:38.671Z,9.60
2023-02-21T15:34:07.648Z,9.60
2023-02-21T15:36:36.193Z,9.50
2023-02-21T15:39:08.545Z,9.60
2023-02-21T15:41:42.069Z,9.50
2023-02-21T15:44:17.454Z,9.50
2023-02-21T15:46:50.645Z,9.50
2023-02-21T15:49:23.817Z,9.50
2023-02-21T15:51:53.409Z,9.50
2023-02-21T15:54:31.632Z,9.60
2023-02-21T15:57:25.197Z,9.60
2023-02-21T16:00:19.944Z,9.60
2023-02-21T16:02:49.598Z,9.60
2023-02-21T16:05:26.686Z,9.50
2023-02-21T16:07:55.764Z,9.50
2023-02-21T16:10:28.974Z,9.50
2023-02-21T16:13:00.280Z,9.50
2023-02-21T16:15:33.285Z,9.40
2023-02-21T16:18:04.171Z,9.40
2023-02-21T16:20:35.629Z,9.40
2023-02-21T16:23:24.079Z,9.40
2023-02-21T16:26:01.257Z,9.40
2023-02-21T16:28:30.539Z,9.40
2023-02-21T16:31:03.005Z,9.40
2023-02-21T16:33:32.567Z,9.40
2023-02-21T16:36:03.665Z,9.40
2023-02-21T16:38:32.601Z,9.20
2023-02-21T16:41:01.345Z,9.20
2023-02-21T16:43:32.013Z,9.10
2023-02-21T16:46:02.650Z,9.10
2023-02-21T16:48:33.679Z,9.10
2023-02-21T16:51:05.421Z,9.20
2023-02-21T16:53:34.141Z,9.10
2023-02-21T16:56:04.063Z,9.10
2023-02-21T16:58:39.620Z,9.20
2023-02-21T17:01:15.088Z,9.30
2023-02-21T17:03:44.072Z,9.40
2023-02-21T17:06:18.527Z,9.40
2023-02-21T17:08:47.137Z,9.30
2023-02-21T17:11:16.453Z,9.40
2023-02-21T17:13:45.425Z,9.20
2023-02-21T17:16:16.136Z,9.10
2023-02-21T17:18:45.759Z,9.10
2023-02-21T17:21:15.226Z,9.00
2023-02-21T17:23:44.238Z,9.00
2023-02-21T17:26:13.810Z,9.00
2023-02-21T17:28:42.665Z,9.00
2023-02-21T17:31:11.401Z,8.90
2023-02-21T17:33:42.234Z,8.90
2023-02-21T17:36:16.956Z,9.00
2023-02-21T17:38:46.225Z,8.90
2023-02-21T17:41:16.014Z,8.90
2023-02-21T17:43:45.503Z,8.80
2023-02-21T17:46:16.078Z,8.80
2023-02-21T17:48:46.792Z,9.00
2023-02-21T17:51:21.326Z,9.00
2023-02-21T17:53:51.199Z,9.10
2023-02-21T17:56:22.433Z,9.00
2023-02-21T17:58:51.568Z,9.00
2023-02-21T18:01:21.739Z,9.00
2023-02-21T18:03:52.565Z,8.90
2023-02-21T18:06:23.325Z,9.00
2023-02-21T18:08:53.196Z,9.00
2023-02-21T18:11:24.699Z,8.90
2023-02-21T18:13:54.204Z,8.90
2023-02-21T18:16:24.363Z,8.80
2023-02-21T18:18:55.476Z,8.80
2023-02-21T18:21:24.725Z,8.80
2023-02-21T18:23:53.874Z,8.90
2023-02-21T18:26:22.996Z,8.80
2023-02-21T18:28:53.923Z,8.80
2023-02-21T18:31:23.206Z,9.00
2023-02-21T18:33:56.790Z,9.10
2023-02-21T18:36:26.800Z,9.10
2023-02-21T18:38:56.112Z,9.10
2023-02-21T18:41:26.014Z,9.10
2023-02-21T18:43:55.581Z,9.10
2023-02-21T18:46:24.744Z,9.10
2023-02-21T18:48:54.289Z,9.00
2023-02-21T18:51:30.831Z,9.00
2023-02-21T18:54:00.183Z,9.00
2023-02-21T18:56:29.488Z,9.00
2023-02-21T18:58:58.943Z,8.90
2023-02-21T19:01:27.907Z,8.90
2023-02-21T19:03:56.835Z,9.00
2023-02-21T19:06:27.808Z,9.00
2023-02-21T19:09:00.086Z,8.80
2023-02-21T19:11:33.161Z,8.90
2023-02-21T19:14:03.001Z,9.00
2023-02-21T19:16:32.858Z,9.00
2023-02-21T19:19:03.545Z,8.90
2023-02-21T19:21:34.431Z,8.70
2023-02-21T19:26:05.166Z,8.60
2023-02-21T19:48:45.081Z,8.40
2023-02-21T21:24:07.362Z,5.70
2023-02-21T21:26:36.761Z,5.70
2023-02-21T21:29:10.135Z,5.70
2023-02-21T21:31:39.511Z,5.80
2023-02-21T21:34:09.419Z,5.80
2023-02-21T21:36:38.386Z,5.80
2023-02-21T21:39:07.863Z,6.00
2023-02-21T21:41:39.000Z,6.20
2023-02-21T21:44:10.417Z,6.20
2023-02-21T21:46:40.097Z,6.20
2023-02-21T21:49:09.201Z,6.20
2023-02-21T21:51:38.203Z,6.30
2023-02-21T21:54:08.418Z,6.30
2023-02-21T21:56:40.212Z,6.40
2023-02-21T21:59:12.552Z,6.40
2023-02-21T22:01:43.156Z,6.60
2023-02-21T22:04:14.146Z,6.70
2023-02-21T22:06:43.681Z,6.60
2023-02-21T22:09:15.557Z,6.50
2023-02-21T22:11:45.942Z,6.40
2023-02-21T22:14:18.926Z,6.40
2023-02-21T22:16:50.330Z,6.40
2023-02-21T22:19:20.290Z,6.30
2023-02-21T22:21:49.325Z,6.20
2023-02-21T22:24:21.024Z,6.30
2023-02-21T22:26:52.998Z,6.20
2023-02-21T22:29:23.701Z,6.20
2023-02-21T22:31:52.811Z,6.20
2023-02-21T22:34:24.792Z,6.30
2023-02-21T22:36:56.119Z,6.20
2023-02-21T22:39:27.358Z,6.10
2023-02-21T22:41:56.825Z,6.10
2023-02-21T22:44:27.778Z,6.00
2023-02-21T22:47:00.288Z,6.30
2023-02-21T22:49:30.848Z,6.30
2023-02-21T22:51:59.719Z,6.20
2023-02-21T22:54:31.961Z,6.10
2023-02-21T22:57:02.332Z,6.30
2023-02-21T22:59:35.728Z,6.10
2023-02-21T23:02:05.184Z,6.00
2023-02-21T23:04:37.858Z,5.90
2023-02-21T23:07:07.154Z,5.80
2023-02-21T23:09:37.449Z,5.70
2023-02-21T23:12:07.684Z,5.70
2023-02-21T23:14:39.998Z,5.80
2023-02-21T23:17:08.958Z,5.90
2023-02-21T23:19:37.865Z,5.90
2023-02-21T23:22:10.337Z,6.00
2023-02-21T23:24:39.449Z,6.10
2023-02-21T23:27:09.122Z,6.20
2023-02-21T23:29:40.287Z,6.20
2023-02-21T23:32:10.953Z,6.30
2023-02-21T23:34:42.799Z,6.50
2023-02-21T23:37:15.728Z,6.50
2023-02-21T23:39:47.122Z,6.40
2023-02-21T23:42:17.666Z,6.10
2023-02-21T23:44:50.931Z,5.70
2023-02-21T23:47:20.251Z,5.50
2023-02-21T23:49:49.294Z,5.30
2023-02-21T23:52:18.356Z,5.20
2023-02-21T23:54:47.548Z,5.00
2023-02-21T23:57:16.405Z,4.90
2023-02-21T23:59:45.300Z,4.70
